Koyo — JD2279 — position and weather

sailwx.info

Track history (hours):
 
Tides and Currents Weather Stations Pressure Air Temp Water Temp Dewpoint Dewpoint Depression Visibility Wind Speed Wind Dir Waves Ship Positions

Koyo

Last reported at 2015-Jul-31 14:10 UTC. Time now 2015-Jul-31 23:25 UTC.
Position N 34°36' E 135°14'.

Length 80 m; draft 3.6 m.

Type: Cargo ship. MMSI: 431301812.

Date/timePositionNaut miles runAvg speedWind from/ knotsBaromVisibWave heightAir tempDewpointWater temp
2015-Jul-31 14:10N 34°36' E 135°14'242 8.8
2015-Jul-30 10:30N 33°51' E 130°26'1212.9
2015-Jul-30 09:33N 33°42' E 130°16'8 7.6
2015-Jul-30 08:33N 33°39' E 130°24'0 0.0
2015-Jul-30 07:33N 33°39' E 130°24'6 6.3
2015-Jul-30 06:33N 33°40' E 130°17'237 9.8
2015-Jul-29 06:24N 34°36' E 134°55'911.1
2015-Jul-29 05:33N 34°36' E 135°07'7 7.4
2015-Jul-29 04:33N 34°40' E 135°14'0 0.0
2015-Jul-29 03:32N 34°40' E 135°14'0 0.0
2015-Jul-29 02:33N 34°40' E 135°14'0 0.0
2015-Jul-29 01:33N 34°40' E 135°14'1 1.2
2015-Jul-29 00:33N 34°39' E 135°15'0 0.0
2015-Jul-28 23:33N 34°39' E 135°15'0 0.1
2015-Jul-28 22:33N 34°39' E 135°15'0 0.0
2015-Jul-28 21:33N 34°39' E 135°15'10 9.7
2015-Jul-28 20:33N 34°35' E 135°04'10 9.9
2015-Jul-28 19:31N 34°34' E 134°52'2 0.1
2015-Jul-27 07:10N 34°36' E 134°53'813.8
2015-Jul-27 06:33N 34°36' E 135°03'1010.2
2015-Jul-27 05:33N 34°40' E 135°15'0 0.2
2015-Jul-27 04:26N 34°39' E 135°15'0 0.0
2015-Jul-27 03:32N 34°39' E 135°15'0 0.0
2015-Jul-27 02:32N 34°39' E 135°15'0 0.0
2015-Jul-27 01:32N 34°39' E 135°15'1 0.9
2015-Jul-27 00:33N 34°40' E 135°15'2 2.0
2015-Jul-26 23:33N 34°41' E 135°13'0 0.0
2015-Jul-26 22:27N 34°41' E 135°13'0 0.1
2015-Jul-26 21:33N 34°41' E 135°13'0 0.0
2015-Jul-26 20:33N 34°41' E 135°13'0 0.0
2015-Jul-26 19:27N 34°41' E 135°13'0 0.0
2015-Jul-26 18:33N 34°41' E 135°13'0 0.0
2015-Jul-26 17:33N 34°41' E 135°13'0 0.0
2015-Jul-26 16:33N 34°41' E 135°13'0 0.0
2015-Jul-26 15:33N 34°41' E 135°13'0 0.0
2015-Jul-26 14:33N 34°41' E 135°13'0 0.0
2015-Jul-26 13:15N 34°41' E 135°13'0 0.0
2015-Jul-26 12:33N 34°41' E 135°13'0 0.0
2015-Jul-26 11:33N 34°41' E 135°13'0 0.0
2015-Jul-26 10:33N 34°41' E 135°13'0 0.0
2015-Jul-26 09:33N 34°41' E 135°13'0 0.0
2015-Jul-26 08:15N 34°41' E 135°13'0 0.0
2015-Jul-26 07:33N 34°41' E 135°13'0 0.0
2015-Jul-26 06:33N 34°41' E 135°13'0 0.0
2015-Jul-26 05:33N 34°41' E 135°13'0 0.0
2015-Jul-26 04:33N 34°41' E 135°13'0 0.0
2015-Jul-26 03:09N 34°41' E 135°13'0 0.0
2015-Jul-26 02:21N 34°41' E 135°13'0 0.0
2015-Jul-26 01:27N 34°41' E 135°13'0 0.0
2015-Jul-26 00:33N 34°41' E 135°13'0 0.0
2015-Jul-25 23:33N 34°41' E 135°13'0 0.0
2015-Jul-25 22:33N 34°41' E 135°13'0 0.0
2015-Jul-25 21:33N 34°41' E 135°13'0 0.0
2015-Jul-25 20:33N 34°41' E 135°13'0 0.0
2015-Jul-25 19:27N 34°41' E 135°13'0 0.0
2015-Jul-25 18:33N 34°41' E 135°13'0 0.0
2015-Jul-25 17:33N 34°41' E 135°13'0 0.0
2015-Jul-25 16:33N 34°41' E 135°13'0 0.0
2015-Jul-25 15:27N 34°41' E 135°13'0 0.0
2015-Jul-25 14:33N 34°41' E 135°13'0 0.1
2015-Jul-25 13:33N 34°41' E 135°13'6 6.3
2015-Jul-25 12:33N 34°36' E 135°09'1313.0
2015-Jul-25 11:33N 34°35' E 134°54'  
2015-Jul-22 14:33N 34°09' E 134°51'1111.0
2015-Jul-22 13:31N 34°18' E 134°59'1010.8
2015-Jul-22 12:33N 34°27' E 135°04'1211.9
2015-Jul-22 11:33N 34°37' E 135°13'3 2.7
2015-Jul-22 10:26N 34°40' E 135°14'0 0.0
2015-Jul-22 09:32N 34°40' E 135°14'0 0.0
2015-Jul-22 08:32N 34°40' E 135°14'0 0.0
2015-Jul-22 07:26N 34°40' E 135°14'0 0.0
2015-Jul-22 06:26N 34°40' E 135°14'0 0.0
2015-Jul-22 05:32N 34°40' E 135°14'0 0.0
2015-Jul-22 04:32N 34°40' E 135°14'0 0.0
2015-Jul-22 03:20N 34°40' E 135°14'0 0.0
2015-Jul-22 02:32N 34°40' E 135°14'0 0.0
2015-Jul-22 01:32N 34°40' E 135°14'1 1.3
2015-Jul-22 00:28N 34°39' E 135°16'0 0.0
2015-Jul-21 23:28N 34°39' E 135°16'0 0.1
2015-Jul-21 22:31N 34°38' E 135°16'1010.8
2015-Jul-21 21:33N 34°35' E 135°04'  
Track history (hours):
 
Tides and Currents Weather Stations Pressure Air Temp Water Temp Dewpoint Dewpoint Depression Visibility Wind Speed Wind Dir Waves Ship Positions

Koyo

Last reported at 2015-Jul-31 14:10 UTC. Time now 2015-Jul-31 23:25 UTC.
Position N 34°36' E 135°14'.

Length 80 m; draft 3.6 m.

Type: Cargo ship. MMSI: 431301812.

Date/timePositionNaut miles runAvg speedWind from/ knotsBaromVisibWave heightAir tempDewpointWater temp
2015-Jul-31 14:10N 34°36' E 135°14'242 8.8
2015-Jul-30 10:30N 33°51' E 130°26'1212.9
2015-Jul-30 09:33N 33°42' E 130°16'8 7.6
2015-Jul-30 08:33N 33°39' E 130°24'0 0.0
2015-Jul-30 07:33N 33°39' E 130°24'6 6.3
2015-Jul-30 06:33N 33°40' E 130°17'237 9.8
2015-Jul-29 06:24N 34°36' E 134°55'911.1
2015-Jul-29 05:33N 34°36' E 135°07'7 7.4
2015-Jul-29 04:33N 34°40' E 135°14'0 0.0
2015-Jul-29 03:32N 34°40' E 135°14'0 0.0
2015-Jul-29 02:33N 34°40' E 135°14'0 0.0
2015-Jul-29 01:33N 34°40' E 135°14'1 1.2
2015-Jul-29 00:33N 34°39' E 135°15'0 0.0
2015-Jul-28 23:33N 34°39' E 135°15'0 0.1
2015-Jul-28 22:33N 34°39' E 135°15'0 0.0
2015-Jul-28 21:33N 34°39' E 135°15'10 9.7
2015-Jul-28 20:33N 34°35' E 135°04'10 9.9
2015-Jul-28 19:31N 34°34' E 134°52'2 0.1
2015-Jul-27 07:10N 34°36' E 134°53'813.8
2015-Jul-27 06:33N 34°36' E 135°03'1010.2
2015-Jul-27 05:33N 34°40' E 135°15'0 0.2
2015-Jul-27 04:26N 34°39' E 135°15'0 0.0
2015-Jul-27 03:32N 34°39' E 135°15'0 0.0
2015-Jul-27 02:32N 34°39' E 135°15'0 0.0
2015-Jul-27 01:32N 34°39' E 135°15'1 0.9
2015-Jul-27 00:33N 34°40' E 135°15'2 2.0
2015-Jul-26 23:33N 34°41' E 135°13'0 0.0
2015-Jul-26 22:27N 34°41' E 135°13'0 0.1
2015-Jul-26 21:33N 34°41' E 135°13'0 0.0
2015-Jul-26 20:33N 34°41' E 135°13'0 0.0
2015-Jul-26 19:27N 34°41' E 135°13'0 0.0
2015-Jul-26 18:33N 34°41' E 135°13'0 0.0
2015-Jul-26 17:33N 34°41' E 135°13'0 0.0
2015-Jul-26 16:33N 34°41' E 135°13'0 0.0
2015-Jul-26 15:33N 34°41' E 135°13'0 0.0
2015-Jul-26 14:33N 34°41' E 135°13'0 0.0
2015-Jul-26 13:15N 34°41' E 135°13'0 0.0
2015-Jul-26 12:33N 34°41' E 135°13'0 0.0
2015-Jul-26 11:33N 34°41' E 135°13'0 0.0
2015-Jul-26 10:33N 34°41' E 135°13'0 0.0
2015-Jul-26 09:33N 34°41' E 135°13'0 0.0
2015-Jul-26 08:15N 34°41' E 135°13'0 0.0
2015-Jul-26 07:33N 34°41' E 135°13'0 0.0
2015-Jul-26 06:33N 34°41' E 135°13'0 0.0
2015-Jul-26 05:33N 34°41' E 135°13'0 0.0
2015-Jul-26 04:33N 34°41' E 135°13'0 0.0
2015-Jul-26 03:09N 34°41' E 135°13'0 0.0
2015-Jul-26 02:21N 34°41' E 135°13'0 0.0
2015-Jul-26 01:27N 34°41' E 135°13'0 0.0
2015-Jul-26 00:33N 34°41' E 135°13'0 0.0
2015-Jul-25 23:33N 34°41' E 135°13'0 0.0
2015-Jul-25 22:33N 34°41' E 135°13'0 0.0
2015-Jul-25 21:33N 34°41' E 135°13'0 0.0
2015-Jul-25 20:33N 34°41' E 135°13'0 0.0
2015-Jul-25 19:27N 34°41' E 135°13'0 0.0
2015-Jul-25 18:33N 34°41' E 135°13'0 0.0
2015-Jul-25 17:33N 34°41' E 135°13'0 0.0
2015-Jul-25 16:33N 34°41' E 135°13'0 0.0
2015-Jul-25 15:27N 34°41' E 135°13'0 0.0
2015-Jul-25 14:33N 34°41' E 135°13'0 0.1
2015-Jul-25 13:33N 34°41' E 135°13'6 6.3
2015-Jul-25 12:33N 34°36' E 135°09'1313.0
2015-Jul-25 11:33N 34°35' E 134°54'  
2015-Jul-22 14:33N 34°09' E 134°51'1111.0
2015-Jul-22 13:31N 34°18' E 134°59'1010.8
2015-Jul-22 12:33N 34°27' E 135°04'1211.9
2015-Jul-22 11:33N 34°37' E 135°13'3 2.7
2015-Jul-22 10:26N 34°40' E 135°14'0 0.0
2015-Jul-22 09:32N 34°40' E 135°14'0 0.0
2015-Jul-22 08:32N 34°40' E 135°14'0 0.0
2015-Jul-22 07:26N 34°40' E 135°14'0 0.0
2015-Jul-22 06:26N 34°40' E 135°14'0 0.0
2015-Jul-22 05:32N 34°40' E 135°14'0 0.0
2015-Jul-22 04:32N 34°40' E 135°14'0 0.0
2015-Jul-22 03:20N 34°40' E 135°14'0 0.0
2015-Jul-22 02:32N 34°40' E 135°14'0 0.0
2015-Jul-22 01:32N 34°40' E 135°14'1 1.3
2015-Jul-22 00:28N 34°39' E 135°16'0 0.0
2015-Jul-21 23:28N 34°39' E 135°16'0 0.1
2015-Jul-21 22:31N 34°38' E 135°16'1010.8
2015-Jul-21 21:33N 34°35' E 135°04'  

Dump ship's entire track history